Time;durP1;ratioP1;P1;durP2;ratioP2;P2;SDS_P1;SDS_P2;PMS_P1;PMS_P2;Temp;Humidity;BMP_temperature;BMP_pressure;BME280_temperature;BME280_humidity;BME280_pressure;Samples;Min_cycle;Max_cycle;Signal;HPM_P1;HPM_P2
2023/05/31 00:01:09;;;;;;;4.80;4.43;;;;;;;12.38;100.00;102407.06;5079891;28;20449;-67
2023/05/31 00:03:35;;;;;;;6.72;5.28;;;;;;;12.38;100.00;102407.06;5066959;28;20039;-68
2023/05/31 00:06:00;;;;;;;6.13;5.63;;;;;;;12.37;100.00;102403.56;5084185;28;20102;-67
2023/05/31 00:08:25;;;;;;;5.50;5.05;;;;;;;12.35;100.00;102407.78;5075633;28;20158;-67
2023/05/31 00:10:51;;;;;;;5.43;4.93;;;;;;;12.32;100.00;102412.84;5094395;28;20035;-67
2023/05/31 00:13:16;;;;;;;6.28;4.80;;;;;;;12.32;100.00;102408.53;5106262;28;20031;-67
2023/05/31 00:15:41;;;;;;;6.22;5.60;;;;;;;12.34;100.00;102411.22;5106040;28;20020;-68
2023/05/31 00:18:07;;;;;;;5.50;5.00;;;;;;;12.31;100.00;102405.84;5083479;28;20457;-68
2023/05/31 00:20:32;;;;;;;5.15;4.65;;;;;;;12.31;100.00;102411.06;5084012;28;20029;-67
2023/05/31 00:22:57;;;;;;;5.68;5.18;;;;;;;12.28;100.00;102408.31;5070446;28;20029;-68
2023/05/31 00:25:22;;;;;;;5.70;5.20;;;;;;;12.23;100.00;102413.28;5096403;28;20565;-67
2023/05/31 00:27:48;;;;;;;5.47;4.97;;;;;;;12.21;100.00;102396.72;5110930;28;20038;-67
2023/05/31 00:30:13;;;;;;;6.35;5.28;;;;;;;12.20;100.00;102402.72;5097437;28;20039;-67
2023/05/31 00:32:38;;;;;;;7.18;5.43;;;;;;;12.20;100.00;102403.63;5069834;28;20041;-67
2023/05/31 00:35:04;;;;;;;5.95;4.70;;;;;;;12.17;100.00;102403.47;5070262;28;20020;-67
2023/05/31 00:37:32;;;;;;;5.32;4.88;;;;;;;12.17;100.00;102406.06;5070929;28;20454;-66
2023/05/31 00:39:58;;;;;;;5.40;4.90;;;;;;;12.13;100.00;102399.81;5069230;28;20032;-67
2023/05/31 00:42:23;;;;;;;6.25;5.75;;;;;;;12.10;100.00;102404.88;5070584;28;20113;-67
2023/05/31 00:44:48;;;;;;;5.25;4.70;;;;;;;12.10;100.00;102404.88;5070914;28;20430;-67
2023/05/31 00:47:13;;;;;;;5.55;5.05;;;;;;;12.11;100.00;102408.34;5071094;28;20028;-67
2023/05/31 00:49:39;;;;;;;5.63;5.13;;;;;;;12.09;100.00;102404.72;5077105;28;20051;-67
2023/05/31 00:52:05;;;;;;;5.65;5.07;;;;;;;12.09;100.00;102409.94;5080193;28;20028;-67
2023/05/31 00:54:30;;;;;;;5.25;4.75;;;;;;;12.09;100.00;102409.94;5101623;28;20038;-67
2023/05/31 00:56:55;;;;;;;5.53;4.85;;;;;;;12.06;100.00;102415.88;5085640;28;20039;-68
2023/05/31 00:59:21;;;;;;;9.05;6.60;;;;;;;12.07;100.00;102417.66;5070988;28;20024;-68
2023/05/31 01:01:46;;;;;;;5.55;5.05;;;;;;;12.03;100.00;102420.94;5093341;28;20065;-68
2023/05/31 01:04:12;;;;;;;5.13;4.75;;;;;;;12.02;100.00;102421.72;5081873;28;20071;-67
2023/05/31 01:06:39;;;;;;;5.28;4.75;;;;;;;12.01;100.00;102412.16;5070012;28;20385;-67
2023/05/31 01:09:07;;;;;;;5.50;5.00;;;;;;;11.99;100.00;102414.69;5068621;28;20016;-67
2023/05/31 01:12:10;;;;;;;7.00;5.43;;;;;;;11.96;100.00;102409.31;5069480;28;20107;-67
2023/05/31 01:14:41;;;;;;;6.40;5.80;;;;;;;11.96;100.00;102416.22;5069642;28;20055;-67
2023/05/31 01:17:22;;;;;;;6.18;5.57;;;;;;;11.91;100.00;102420.28;5095125;28;20120;-66
2023/05/31 01:19:56;;;;;;;5.63;4.97;;;;;;;11.90;100.00;102416.78;5094737;28;20035;-67
2023/05/31 01:22:33;;;;;;;6.07;5.47;;;;;;;11.86;100.00;102413.16;5069047;28;20431;-67
2023/05/31 01:25:16;;;;;;;6.38;5.78;;;;;;;11.84;100.00;102408.66;5072178;28;20381;-67
2023/05/31 01:27:43;;;;;;;5.68;5.18;;;;;;;11.83;100.00;102417.28;5099669;28;20024;-67
2023/05/31 01:30:10;;;;;;;6.55;5.97;;;;;;;11.81;100.00;102418.91;5094559;28;20244;-67
2023/05/31 01:32:37;;;;;;;6.43;5.72;;;;;;;11.81;100.00;102424.09;5068890;28;20118;-67
2023/05/31 01:35:03;;;;;;;7.45;5.35;;;;;;;11.80;100.00;102422.34;5092889;28;20027;-67
2023/05/31 01:37:28;;;;;;;6.50;5.90;;;;;;;11.76;100.00;102411.75;5106604;28;20039;-66
2023/05/31 01:39:53;;;;;;;7.40;5.80;;;;;;;11.77;100.00;102408.38;5094063;28;20025;-67
2023/05/31 01:42:20;;;;;;;6.82;6.22;;;;;;;11.75;100.00;102416.88;5081138;28;20032;-67
2023/05/31 01:44:48;;;;;;;7.57;6.72;;;;;;;11.72;100.00;102402.03;5081143;28;20062;-67
2023/05/31 01:47:14;;;;;;;6.82;6.13;;;;;;;11.73;100.00;102414.19;5080318;28;20294;-67
2023/05/31 01:49:40;;;;;;;7.05;6.38;;;;;;;11.72;100.00;102404.63;5100079;28;20464;-67
2023/05/31 01:52:07;;;;;;;6.30;5.65;;;;;;;11.71;100.00;102401.97;5080646;28;20146;-67
2023/05/31 01:54:32;;;;;;;6.25;5.65;;;;;;;11.68;100.00;102399.19;5077275;28;20028;-67
2023/05/31 01:57:02;;;;;;;7.70;6.90;;;;;;;11.66;100.00;102404.31;5080929;28;20114;-67
2023/05/31 01:59:28;;;;;;;6.32;5.72;;;;;;;11.64;100.00;102393.84;5069395;28;20078;-66
2023/05/31 02:01:55;;;;;;;7.68;6.90;;;;;;;11.64;100.00;102390.34;5068582;28;20468;-67
2023/05/31 02:04:20;;;;;;;8.35;6.30;;;;;;;11.64;100.00;102386.06;5080667;28;20023;-67
2023/05/31 02:06:45;;;;;;;8.90;6.18;;;;;;;11.64;100.00;102396.44;5096551;28;20040;-68
2023/05/31 02:09:10;;;;;;;6.75;6.10;;;;;;;11.63;100.00;102391.16;5094126;28;20019;-68
2023/05/31 02:11:36;;;;;;;7.40;6.70;;;;;;;11.62;100.00;102392.88;5082904;28;20032;-66
2023/05/31 02:14:01;;;;;;;7.60;6.65;;;;;;;11.63;100.00;102396.38;5094682;28;20476;-67
2023/05/31 02:16:26;;;;;;;6.47;5.60;;;;;;;11.59;100.00;102392.72;5068753;28;20111;-67
2023/05/31 02:18:52;;;;;;;8.45;6.93;;;;;;;11.55;100.00;102384.69;5094927;28;20111;-67
2023/05/31 02:21:17;;;;;;;7.70;6.90;;;;;;;11.53;100.00;102393.28;5068033;28;20107;-67
2023/05/31 02:23:42;;;;;;;8.07;6.75;;;;;;;11.52;100.00;102390.59;5068348;28;20028;-67
2023/05/31 02:26:08;;;;;;;7.57;6.80;;;;;;;11.50;100.00;102387.94;5068474;28;20124;-67
2023/05/31 02:28:33;;;;;;;8.00;7.20;;;;;;;11.46;100.00;102385.97;5088300;28;20107;-67
2023/05/31 02:31:00;;;;;;;8.00;7.00;;;;;;;11.44;100.00;102387.59;5075264;28;20119;-67
2023/05/31 02:33:26;;;;;;;7.32;6.53;;;;;;;11.41;100.00;102390.94;5067969;28;20028;-67
2023/05/31 02:35:52;;;;;;;8.48;7.60;;;;;;;11.41;100.00;102392.63;5068021;28;20077;-67
2023/05/31 02:38:20;;;;;;;8.50;6.80;;;;;;;11.41;100.00;102393.53;5068756;28;20444;-67
2023/05/31 02:40:46;;;;;;;7.43;6.72;;;;;;;11.40;100.00;102386.53;5067829;28;20039;-67
2023/05/31 02:43:11;;;;;;;8.00;7.20;;;;;;;11.37;100.00;102385.50;5094961;28;20016;-67
2023/05/31 02:45:37;;;;;;;8.13;6.82;;;;;;;11.38;100.00;102382.09;5067538;28;20116;-66
2023/05/31 02:48:05;;;;;;;8.02;6.93;;;;;;;11.34;100.00;102382.72;5069476;28;20024;-68
2023/05/31 02:50:31;;;;;;;8.65;7.65;;;;;;;11.31;100.00;102386.06;5067689;28;20488;-68
2023/05/31 02:52:56;;;;;;;9.82;8.07;;;;;;;11.27;100.00;102379.81;5079918;28;20201;-67
2023/05/31 02:55:22;;;;;;;7.95;7.25;;;;;;;11.28;100.00;102394.56;5097011;28;20111;-67
2023/05/31 02:57:47;;;;;;;8.35;6.97;;;;;;;11.26;100.00;102390.97;5081070;28;20382;-66
2023/05/31 03:00:13;;;;;;;7.45;6.75;;;;;;;11.24;100.00;102390.00;5083195;28;20031;-67
2023/05/31 03:02:39;;;;;;;8.70;7.90;;;;;;;11.24;100.00;102395.19;5087864;28;20028;-67
2023/05/31 03:05:06;;;;;;;9.93;7.85;;;;;;;11.23;100.00;102388.22;5085665;28;20098;-68
2023/05/31 03:07:35;;;;;;;8.95;7.50;;;;;;;11.22;100.00;102386.47;5107355;28;20028;-67
2023/05/31 03:10:04;;;;;;;10.77;8.40;;;;;;;11.20;100.00;102387.16;5080148;28;20024;-68
2023/05/31 03:12:29;;;;;;;9.38;7.80;;;;;;;11.19;100.00;102386.28;5095014;28;20481;-68
2023/05/31 03:14:54;;;;;;;9.38;7.88;;;;;;;11.16;100.00;102391.31;5067411;28;20025;-67
2023/05/31 03:17:20;;;;;;;8.73;7.82;;;;;;;11.11;100.00;102391.06;5077314;28;20384;-67
2023/05/31 03:19:45;;;;;;;9.25;8.32;;;;;;;11.09;100.00;102390.09;5067958;28;20024;-67
2023/05/31 03:22:10;;;;;;;8.45;7.57;;;;;;;11.08;100.00;102398.66;5066828;28;20059;-67
2023/05/31 03:24:36;;;;;;;9.05;8.23;;;;;;;11.09;100.00;102390.09;5083776;28;20024;-67
2023/05/31 03:27:01;;;;;;;9.55;8.07;;;;;;;11.09;100.00;102386.59;5097837;28;20015;-67
2023/05/31 03:29:27;;;;;;;8.88;7.85;;;;;;;11.09;100.00;102394.38;5082620;28;20490;-68
2023/05/31 03:31:52;;;;;;;9.27;8.32;;;;;;;11.05;100.00;102394.22;5066333;28;20071;-67
2023/05/31 03:34:18;;;;;;;10.45;9.10;;;;;;;11.02;100.00;102391.44;5078450;28;20016;-67
2023/05/31 03:36:43;;;;;;;12.20;8.00;;;;;;;10.99;100.00;102388.66;5097056;28;20105;-66
2023/05/31 03:39:08;;;;;;;9.25;8.35;;;;;;;10.97;100.00;102389.41;5068608;28;20460;-67
2023/05/31 03:41:34;;;;;;;9.95;8.27;;;;;;;10.96;100.00;102383.31;5056095;28;20178;-68
2023/05/31 03:43:59;;;;;;;11.93;8.95;;;;;;;10.95;100.00;102385.84;5108512;28;20420;-67
2023/05/31 03:46:24;;;;;;;10.43;8.85;;;;;;;10.91;100.00;102380.47;5073372;28;20048;-67
2023/05/31 03:48:50;;;;;;;10.88;8.90;;;;;;;10.91;100.00;102382.19;5067907;28;20062;-68
2023/05/31 03:51:16;;;;;;;10.88;9.07;;;;;;;10.89;100.00;102388.97;5067851;28;20039;-68
2023/05/31 03:53:41;;;;;;;11.93;9.63;;;;;;;10.86;100.00;102391.41;5085344;28;20020;-67
2023/05/31 03:56:06;;;;;;;10.18;9.05;;;;;;;10.86;100.00;102383.63;5071932;28;20468;-67
2023/05/31 03:58:32;;;;;;;9.95;8.50;;;;;;;10.83;100.00;102383.47;5085214;28;20031;-67
2023/05/31 04:00:57;;;;;;;11.40;9.32;;;;;;;10.83;100.00;102388.66;5082769;28;20028;-67
2023/05/31 04:03:23;;;;;;;9.93;8.52;;;;;;;10.84;100.00;102393.91;5074086;28;20036;-66
2023/05/31 04:05:48;;;;;;;11.23;8.80;;;;;;;10.83;100.00;102397.31;5072118;28;20485;-68
2023/05/31 04:08:14;;;;;;;10.50;9.40;;;;;;;10.84;100.00;102387.81;5080091;28;20115;-68
2023/05/31 04:10:40;;;;;;;10.73;9.13;;;;;;;10.86;100.00;102391.41;5076509;28;20097;-67
2023/05/31 04:13:05;;;;;;;10.30;9.02;;;;;;;10.85;100.00;102381.84;5071157;28;20457;-67
2023/05/31 04:15:31;;;;;;;11.60;9.40;;;;;;;10.87;100.00;102393.19;5073025;28;20496;-67
2023/05/31 04:17:56;;;;;;;11.02;9.45;;;;;;;10.89;100.00;102386.38;5072393;28;20062;-67
2023/05/31 04:20:22;;;;;;;10.20;9.02;;;;;;;10.91;100.00;102382.19;5072927;28;20059;-67
2023/05/31 04:22:47;;;;;;;12.23;9.88;;;;;;;10.92;100.00;102382.25;5072359;28;20043;-67
2023/05/31 04:25:12;;;;;;;11.55;9.70;;;;;;;10.94;100.00;102377.16;5072748;28;20434;-67
2023/05/31 04:27:40;;;;;;;12.38;10.00;;;;;;;10.95;100.00;102378.06;5072068;28;20028;-67
2023/05/31 04:30:07;;;;;;;12.38;10.00;;;;;;;10.95;100.00;102385.84;5073288;28;20048;-67
2023/05/31 04:32:34;;;;;;;11.43;9.63;;;;;;;10.96;100.00;102388.50;5081244;28;20056;-67
2023/05/31 04:35:04;;;;;;;11.60;9.85;;;;;;;10.98;100.00;102384.31;5071258;28;20032;-67
2023/05/31 04:37:30;;;;;;;10.43;9.38;;;;;;;11.02;100.00;102388.88;5070504;28;20020;-67
2023/05/31 04:39:59;;;;;;;11.43;10.05;;;;;;;11.06;100.00;102397.72;5070643;28;20055;-67
2023/05/31 04:42:25;;;;;;;12.23;10.65;;;;;;;11.10;100.00;102390.97;5071233;28;20041;-66
2023/05/31 04:44:57;;;;;;;11.93;10.57;;;;;;;11.15;100.00;102390.41;5071582;28;20451;-66
2023/05/31 04:47:28;;;;;;;11.30;10.05;;;;;;;11.18;100.00;102389.69;5082852;28;20036;-67
2023/05/31 04:49:56;;;;;;;12.65;11.30;;;;;;;11.21;100.00;102384.66;5071033;28;20556;-67
2023/05/31 04:52:32;;;;;;;12.32;10.95;;;;;;;11.26;100.00;102387.53;5077879;28;20027;-67
2023/05/31 04:54:59;;;;;;;11.85;10.68;;;;;;;11.29;100.00;102391.19;5078741;28;20020;-67
2023/05/31 04:57:26;;;;;;;14.25;12.23;;;;;;;11.34;100.00;102385.31;5094653;28;20188;-68
2023/05/31 04:59:51;;;;;;;15.07;12.05;;;;;;;11.39;100.00;102394.25;5070422;28;20021;-67
2023/05/31 05:02:18;;;;;;;14.70;12.32;;;;;;;11.43;100.00;102398.78;5068988;28;20037;-68
2023/05/31 05:04:44;;;;;;;14.68;12.82;;;;;;;11.47;100.00;102387.78;5072818;28;20032;-67
2023/05/31 05:07:09;;;;;;;14.55;11.88;;;;;;;11.55;100.00;102390.75;5076489;28;20020;-67
2023/05/31 05:09:35;;;;;;;12.95;11.30;;;;;;;11.60;100.00;102399.69;5083102;28;20029;-66
2023/05/31 05:12:02;;;;;;;13.73;12.15;;;;;;;11.66;100.00;102393.91;5070699;28;20056;-67
2023/05/31 05:14:28;;;;;;;13.18;11.77;;;;;;;11.74;100.00;102394.34;5070682;28;20074;-67
2023/05/31 05:16:53;;;;;;;14.68;13.02;;;;;;;11.79;100.00;102394.56;5070399;28;20466;-66
2023/05/31 05:19:20;;;;;;;13.27;11.27;;;;;;;11.87;100.00;102395.88;5096509;28;20479;-67
2023/05/31 05:21:45;;;;;;;14.40;11.90;;;;;;;11.96;100.00;102401.50;5097471;28;20058;-66
2023/05/31 05:24:11;;;;;;;14.20;12.73;;;;;;;12.03;100.00;102394.03;5110138;28;20383;-67
2023/05/31 05:26:36;;;;;;;13.38;11.98;;;;;;;12.10;100.00;102401.38;5082693;28;20028;-67
2023/05/31 05:29:02;;;;;;;14.93;12.25;;;;;;;12.18;100.00;102397.44;5083213;28;20038;-67
2023/05/31 05:31:27;;;;;;;13.05;11.73;;;;;;;12.27;100.00;102398.75;5096181;28;20040;-67
2023/05/31 05:33:52;;;;;;;14.65;11.80;;;;;;;12.36;100.00;102404.38;5083367;28;20028;-67
2023/05/31 05:36:18;;;;;;;14.15;12.65;;;;;;;12.46;100.00;102406.63;5070315;28;20070;-67
2023/05/31 05:38:44;;;;;;;14.38;12.23;;;;;;;12.57;100.00;102401.97;5070192;28;20623;-68
2023/05/31 05:41:12;;;;;;;15.57;12.77;;;;;;;12.68;100.00;102407.66;5070902;28;20111;-67
2023/05/31 05:43:40;;;;;;;14.27;12.63;;;;;;;12.78;100.00;102402.91;5070428;28;20650;-68
2023/05/31 05:46:05;;;;;;;15.60;12.07;;;;;;;12.90;100.00;102406.09;5069931;28;20041;-67
2023/05/31 05:48:31;;;;;;;14.60;12.30;;;;;;;13.02;100.00;102400.59;5078636;28;20032;-67
2023/05/31 05:50:57;;;;;;;14.80;12.82;;;;;;;13.10;100.00;102400.94;5069716;28;20029;-67
2023/05/31 05:53:22;;;;;;;17.02;12.57;;;;;;;13.18;100.00;102404.78;5083015;28;20106;-66
2023/05/31 05:55:51;;;;;;;14.15;12.45;;;;;;;13.24;100.00;102403.28;5069962;28;20399;-67
2023/05/31 05:58:18;;;;;;;14.05;12.07;;;;;;;13.32;100.00;102404.53;5050473;28;20028;-67
2023/05/31 06:00:46;;;;;;;13.20;11.65;;;;;;;13.43;100.00;102405.91;5080516;28;20033;-67
2023/05/31 06:03:15;;;;;;;17.33;13.05;;;;;;;13.53;100.00;102412.44;5078050;28;20047;-67
2023/05/31 06:05:43;;;;;;;14.13;12.23;;;;;;;13.61;100.00;102407.59;5077790;28;20017;-67
2023/05/31 06:08:10;;;;;;;15.38;12.07;;;;;;;13.69;100.00;102413.13;5082418;28;20031;-67
2023/05/31 06:10:36;;;;;;;14.98;12.50;;;;;;;13.77;100.00;102409.16;5085444;28;20036;-67
2023/05/31 06:13:01;;;;;;;12.90;11.40;;;;;;;13.86;100.00;102400.84;5096239;28;20379;-68
2023/05/31 06:15:26;;;;;;;14.57;11.48;;;;;;;13.96;100.00;102398.66;5081064;28;20028;-67
2023/05/31 06:17:52;;;;;;;13.65;10.70;;;;;;;14.05;100.00;102401.63;5085166;28;20023;-67
2023/05/31 06:20:18;;;;;;;13.00;11.27;;;;;;;14.19;100.00;102398.72;5073414;28;20395;-67
2023/05/31 06:22:44;;;;;;;13.95;11.23;;;;;;;14.29;100.00;102406.09;5085345;28;20439;-67
2023/05/31 06:25:09;;;;;;;12.73;11.57;;;;;;;14.40;100.00;102403.94;5097591;28;20024;-68
2023/05/31 06:27:34;;;;;;;13.68;12.25;;;;;;;14.53;100.00;102411.41;5086373;28;20039;-67
2023/05/31 06:30:00;;;;;;;13.82;12.38;;;;;;;14.67;100.00;102418.03;5069525;28;20032;-67
2023/05/31 06:32:29;;;;;;;14.93;12.70;;;;;;;14.76;100.00;102418.41;5082123;28;20057;-66
2023/05/31 06:34:54;;;;;;;16.85;12.05;;;;;;;14.87;100.00;102417.16;5092499;28;20477;-67
2023/05/31 06:37:21;;;;;;;13.98;11.77;;;;;;;14.93;100.00;102416.47;5083984;28;20027;-66
2023/05/31 06:39:47;;;;;;;14.15;12.55;;;;;;;15.06;100.00;102410.03;5088125;28;20032;-67
2023/05/31 06:42:13;;;;;;;13.85;12.45;;;;;;;15.12;100.00;102406.75;5083659;28;20020;-67
2023/05/31 06:44:39;;;;;;;13.63;11.45;;;;;;;15.25;100.00;102418.56;5088250;28;20024;-67
2023/05/31 06:47:05;;;;;;;13.52;11.23;;;;;;;15.33;100.00;102414.50;5068308;28;20170;-67
2023/05/31 06:49:30;;;;;;;13.82;11.30;;;;;;;15.34;100.00;102413.66;5088175;28;20103;-67
2023/05/31 06:51:57;;;;;;;13.68;11.02;;;;;;;15.33;100.00;102417.13;5076988;28;20391;-67
2023/05/31 06:54:22;;;;;;;16.63;12.35;;;;;;;15.43;100.00;102414.84;5077984;28;20032;-66
2023/05/31 06:56:48;;;;;;;14.00;10.50;;;;;;;15.54;100.00;102421.34;5069189;28;20196;-67
2023/05/31 06:59:13;;;;;;;12.32;11.02;;;;;;;15.64;100.00;102424.31;5068758;28;20028;-67
2023/05/31 07:01:38;;;;;;;13.43;11.98;;;;;;;15.61;100.00;102418.13;5069164;28;20506;-67
2023/05/31 07:04:05;;;;;;;14.63;11.30;;;;;;;15.70;100.00;102414.09;5069751;28;20087;-66
2023/05/31 07:06:31;;;;;;;12.57;10.55;;;;;;;15.80;100.00;102420.50;5068188;28;20020;-66
2023/05/31 07:08:56;;;;;;;13.27;10.55;;;;;;;15.96;100.00;102415.00;5083485;28;20444;-67
2023/05/31 07:11:22;;;;;;;14.23;10.98;;;;;;;16.08;98.70;102417.16;5109004;28;20102;-68
2023/05/31 07:13:48;;;;;;;12.40;9.93;;;;;;;16.21;99.38;102420.19;5093356;28;20027;-67
2023/05/31 07:16:14;;;;;;;12.20;10.02;;;;;;;16.36;98.61;102418.94;5080318;28;20024;-67
2023/05/31 07:18:39;;;;;;;12.68;10.32;;;;;;;16.52;98.66;102405.53;5070461;28;20441;-66
2023/05/31 07:21:04;;;;;;;10.65;9.55;;;;;;;16.73;99.18;102411.41;5092379;28;20531;-67
2023/05/31 07:23:30;;;;;;;13.90;11.07;;;;;;;16.87;96.32;102414.44;5082667;28;20024;-67
2023/05/31 07:25:57;;;;;;;12.30;10.60;;;;;;;16.92;93.77;102399.75;5079742;28;20484;-67
2023/05/31 07:28:22;;;;;;;13.15;10.25;;;;;;;17.09;93.72;102402.88;5096019;28;20053;-67
2023/05/31 07:30:48;;;;;;;11.32;9.80;;;;;;;17.26;93.71;102403.41;5087883;28;20627;-67
2023/05/31 07:33:13;;;;;;;12.48;10.55;;;;;;;17.36;91.02;102395.84;5097445;28;20028;-66
2023/05/31 07:35:38;;;;;;;14.00;10.77;;;;;;;17.48;91.25;102401.41;5066994;28;20199;-67
2023/05/31 07:38:03;;;;;;;11.65;9.75;;;;;;;17.63;92.56;102395.69;5092981;28;20297;-67
2023/05/31 07:40:29;;;;;;;15.65;10.15;;;;;;;17.73;90.29;102396.84;5084051;28;20058;-67
2023/05/31 07:42:54;;;;;;;14.57;10.60;;;;;;;17.87;89.10;102393.69;5090795;28;20423;-66
2023/05/31 07:45:20;;;;;;;12.85;10.60;;;;;;;18.03;88.65;102391.44;5078761;28;20107;-67
2023/05/31 07:47:45;;;;;;;10.30;8.57;;;;;;;18.22;88.67;102391.09;5070621;28;20078;-67
2023/05/31 07:50:11;;;;;;;14.40;10.70;;;;;;;18.41;86.59;102390.66;5107623;28;20015;-67
2023/05/31 07:52:36;;;;;;;9.60;8.60;;;;;;;18.59;85.58;102395.47;5089478;28;20031;-67
2023/05/31 07:55:02;;;;;;;10.50;8.55;;;;;;;18.77;84.41;102389.75;5069405;28;20031;-67
2023/05/31 07:57:28;;;;;;;13.13;10.23;;;;;;;18.89;82.57;102388.25;5087109;28;20016;-67
2023/05/31 07:59:53;;;;;;;13.10;10.88;;;;;;;18.83;80.05;102387.25;5098015;28;20038;-68
2023/05/31 08:02:18;;;;;;;13.95;10.75;;;;;;;18.90;79.92;102385.66;5066823;28;20020;-67
2023/05/31 08:04:44;;;;;;;12.98;10.10;;;;;;;18.93;80.16;102385.72;5079916;28;20059;-67
2023/05/31 08:07:09;;;;;;;10.50;8.93;;;;;;;19.08;80.92;102384.28;5075797;28;20020;-66
2023/05/31 08:09:35;;;;;;;9.70;8.65;;;;;;;19.23;79.15;102382.84;5080685;28;20488;-68
2023/05/31 08:12:01;;;;;;;12.48;10.07;;;;;;;19.48;78.49;102372.81;5066620;28;20268;-67
2023/05/31 08:14:26;;;;;;;10.80;9.43;;;;;;;19.61;78.03;102380.06;5086721;28;20024;-67
2023/05/31 08:16:52;;;;;;;11.18;10.02;;;;;;;19.72;75.32;102382.00;5087049;28;20022;-67
2023/05/31 08:19:17;;;;;;;13.13;10.15;;;;;;;19.64;75.25;102376.63;5106572;28;20107;-67
2023/05/31 08:21:45;;;;;;;12.95;10.15;;;;;;;19.86;76.48;102375.25;5080740;28;20032;-66
2023/05/31 08:24:10;;;;;;;13.25;10.13;;;;;;;20.10;77.74;102378.31;5106989;28;20030;-67
2023/05/31 08:26:35;;;;;;;11.57;10.38;;;;;;;20.34;75.80;102372.56;5079773;28;20017;-67
2023/05/31 08:29:01;;;;;;;12.57;10.25;;;;;;;20.52;74.47;102376.34;5078987;28;20490;-67
2023/05/31 08:31:26;;;;;;;15.38;10.02;;;;;;;20.64;73.95;102375.63;5079213;28;20053;-67
2023/05/31 08:33:57;;;;;;;11.30;10.05;;;;;;;20.81;71.71;102374.97;5097903;28;20468;-67
2023/05/31 08:36:23;;;;;;;9.52;8.02;;;;;;;21.02;72.53;102371.75;5084315;28;20032;-67
2023/05/31 08:38:48;;;;;;;11.55;8.10;;;;;;;21.24;71.24;102374.66;5083702;28;20208;-67
2023/05/31 08:41:16;;;;;;;11.57;8.98;;;;;;;21.39;71.92;102373.06;5094588;28;20031;-67
2023/05/31 08:43:42;;;;;;;12.57;8.93;;;;;;;21.40;67.12;102372.19;5109745;28;20051;-67
2023/05/31 08:46:07;;;;;;;12.55;9.82;;;;;;;21.35;67.20;102375.66;5094060;28;20150;-67
2023/05/31 08:48:50;;;;;;;11.90;8.52;;;;;;;21.46;69.56;102375.75;5094338;28;20032;-67
2023/05/31 08:51:16;;;;;;;11.57;9.07;;;;;;;21.59;68.24;102374.16;5073527;28;20035;-67
2023/05/31 08:53:42;;;;;;;10.45;8.35;;;;;;;21.79;68.19;102365.53;5084180;28;20096;-67
2023/05/31 08:56:09;;;;;;;9.52;8.30;;;;;;;21.97;67.57;102369.22;5070177;28;20078;-67
2023/05/31 08:58:36;;;;;;;9.35;8.15;;;;;;;22.04;64.63;102360.50;5081109;28;20421;-68
2023/05/31 09:01:05;;;;;;;10.52;7.95;;;;;;;22.16;66.02;102364.97;5090053;28;20043;-67
2023/05/31 09:03:32;;;;;;;14.63;9.18;;;;;;;22.31;63.89;102358.94;5084181;28;20039;-67
2023/05/31 09:05:57;;;;;;;9.63;7.65;;;;;;;22.45;64.12;102360.75;5080174;28;20436;-68
2023/05/31 09:08:23;;;;;;;9.80;8.10;;;;;;;22.55;64.76;102348.50;5085142;28;20016;-67
2023/05/31 09:10:49;;;;;;;10.65;7.55;;;;;;;22.68;64.13;102349.50;5086205;28;20058;-66
2023/05/31 09:13:15;;;;;;;8.25;7.35;;;;;;;22.77;61.87;102351.31;5069924;28;20107;-67
2023/05/31 09:15:43;;;;;;;8.93;7.20;;;;;;;22.85;61.34;102352.22;5069745;28;20111;-67
2023/05/31 09:18:18;;;;;;;10.68;6.57;;;;;;;22.98;61.99;102347.88;5070281;28;20020;-68
2023/05/31 09:20:46;;;;;;;8.13;6.68;;;;;;;23.13;61.20;102354.09;5071222;28;20063;-68
2023/05/31 09:23:11;;;;;;;8.70;7.70;;;;;;;23.27;60.52;102341.78;5070846;28;20661;-67
2023/05/31 09:25:48;;;;;;;8.60;7.18;;;;;;;23.32;60.45;102348.81;5071143;28;20044;-67
2023/05/31 09:28:14;;;;;;;9.10;7.18;;;;;;;23.39;59.38;102343.56;5069529;28;20111;-67
2023/05/31 09:30:40;;;;;;;8.73;7.57;;;;;;;23.33;57.62;102332.09;5069983;28;20108;-68
2023/05/31 09:33:06;;;;;;;10.88;7.40;;;;;;;23.11;54.62;102339.97;5069759;28;20049;-67
2023/05/31 09:35:32;;;;;;;9.43;6.25;;;;;;;23.19;58.68;102338.22;5069723;28;20111;-67
2023/05/31 09:38:04;;;;;;;10.68;6.10;;;;;;;23.34;58.96;102333.84;5069111;28;20064;-67
2023/05/31 09:40:31;;;;;;;9.48;6.97;;;;;;;23.33;55.10;102326.81;5070006;28;20025;-66
2023/05/31 09:42:56;;;;;;;11.13;6.90;;;;;;;23.33;54.83;102325.03;5069267;28;20143;-67
2023/05/31 09:45:22;;;;;;;7.20;6.05;;;;;;;23.46;57.13;102315.38;5069458;28;20035;-68
2023/05/31 09:47:48;;;;;;;9.25;5.95;;;;;;;23.63;57.90;102317.16;5083855;28;20020;-67
2023/05/31 09:50:18;;;;;;;9.27;6.65;;;;;;;23.62;55.82;102313.63;5079790;28;20021;-67
2023/05/31 09:52:45;;;;;;;8.55;5.88;;;;;;;23.79;57.59;102310.13;5090268;28;20035;-67
2023/05/31 09:55:13;;;;;;;9.43;6.53;;;;;;;23.90;56.12;102309.22;5091926;28;20301;-67
2023/05/31 09:57:40;;;;;;;8.35;6.20;;;;;;;23.99;54.39;102314.50;5088232;28;20104;-67
2023/05/31 10:00:15;;;;;;;7.70;5.60;;;;;;;24.09;56.30;102312.72;5069069;28;20111;-67
2023/05/31 10:02:43;;;;;;;8.70;5.80;;;;;;;24.25;55.34;102310.94;5069074;28;20028;-67
2023/05/31 10:05:09;;;;;;;7.18;5.75;;;;;;;24.32;56.33;102307.41;5092561;28;20022;-67
2023/05/31 10:07:36;;;;;;;8.65;5.82;;;;;;;24.36;52.61;102310.06;5096771;28;20464;-68
2023/05/31 10:10:02;;;;;;;8.43;5.45;;;;;;;24.45;53.31;102313.53;5078940;28;20031;-67
2023/05/31 10:12:30;;;;;;;7.85;5.35;;;;;;;24.27;50.47;102316.25;5070946;28;20045;-67
2023/05/31 10:15:01;;;;;;;11.98;5.25;;;;;;;24.40;52.19;102304.75;5078171;28;20060;-68
2023/05/31 10:17:29;;;;;;;7.88;4.95;;;;;;;24.34;50.16;102302.09;5069465;28;20019;-67
2023/05/31 10:20:01;;;;;;;5.57;4.32;;;;;;;24.38;52.18;102309.16;5069563;28;20079;-67
2023/05/31 10:22:29;;;;;;;5.35;4.47;;;;;;;24.34;49.11;102300.34;5069953;28;20030;-68
2023/05/31 10:25:03;;;;;;;7.38;4.88;;;;;;;24.45;51.17;102289.72;5068928;28;20089;-67
2023/05/31 10:27:32;;;;;;;7.13;4.32;;;;;;;24.53;49.72;102291.44;5069657;28;20032;-67
2023/05/31 10:30:04;;;;;;;6.30;4.35;;;;;;;24.57;50.53;102283.47;5082525;28;20104;-67
2023/05/31 10:32:33;;;;;;;6.90;3.92;;;;;;;24.77;51.13;102289.59;5069178;28;20056;-67
2023/05/31 10:34:58;;;;;;;5.78;3.75;;;;;;;24.88;48.04;102282.44;5068347;28;20024;-67
2023/05/31 10:37:25;;;;;;;7.03;3.08;;;;;;;24.88;47.96;102273.63;5069875;28;20027;-68
2023/05/31 10:40:15;;;;;;;4.80;2.95;;;;;;;24.92;48.77;102273.63;5070894;28;20015;-68
2023/05/31 10:42:59;;;;;;;4.60;2.90;;;;;;;25.07;47.69;102269.13;5067864;28;20032;-67
2023/05/31 10:45:35;;;;;;;5.95;3.17;;;;;;;25.13;45.76;102258.47;5068728;28;20287;-68
2023/05/31 10:48:09;;;;;;;6.60;3.22;;;;;;;24.99;44.98;102260.34;5069222;28;20028;-67
2023/05/31 10:50:35;;;;;;;8.45;3.58;;;;;;;25.10;47.34;102263.78;5068725;28;20415;-67
2023/05/31 10:53:11;;;;;;;6.70;3.92;;;;;;;25.20;48.17;102259.31;5080890;28;20024;-67
2023/05/31 10:55:43;;;;;;;6.50;3.42;;;;;;;25.24;46.55;102260.19;5081377;28;20073;-68
2023/05/31 10:58:29;;;;;;;7.95;3.78;;;;;;;25.29;48.42;102255.72;5107335;28;20051;-67
2023/05/31 11:01:13;;;;;;;5.97;4.20;;;;;;;25.44;48.88;102261.78;5097335;28;20028;-68
2023/05/31 11:03:46;;;;;;;6.70;3.60;;;;;;;25.16;43.51;102258.47;5108147;28;20023;-67
2023/05/31 11:06:14;;;;;;;5.95;3.75;;;;;;;25.04;43.62;102263.84;5105820;28;20594;-68
2023/05/31 11:09:16;;;;;;;4.55;2.88;;;;;;;24.94;44.03;102258.59;5079680;28;20020;-67
2023/05/31 11:11:42;;;;;;;4.53;2.80;;;;;;;24.77;44.35;102241.88;5067439;28;20040;-68
2023/05/31 11:14:10;;;;;;;4.95;2.75;;;;;;;24.87;45.11;102248.88;5081263;28;20024;-67